Time;durP1;ratioP1;P1;durP2;ratioP2;P2;SDS_P1;SDS_P2;PMS_P1;PMS_P2;Temp;Humidity;BMP_temperature;BMP_pressure;BME280_temperature;BME280_humidity;BME280_pressure;Samples;Min_cycle;Max_cycle;Signal;HPM_P1;HPM_P2
2023/09/13 00:01:39;;;;;;;;;;;;;;;19.32;100.00;101192.75;5032098;28;943;-75
2023/09/13 00:04:04;;;;;;;;;;;;;;;19.32;100.00;101202.47;5023142;28;1200;-75
2023/09/13 00:06:30;;;;;;;;;;;;;;;19.27;100.00;101196.94;5032281;28;1395;-77
2023/09/13 00:08:55;;;;;;;;;;;;;;;19.28;100.00;101201.19;5035039;28;1175;-77
2023/09/13 00:11:20;;;;;;;;;;;;;;;19.26;100.00;101198.72;5026531;28;1252;-77
2023/09/13 00:13:45;;;;;;;;;;;;;;;19.29;100.00;101208.09;5028582;28;1926;-77
2023/09/13 00:16:10;;;;;;;;;;;;;;;19.29;100.00;101210.72;5032589;28;1248;-77
2023/09/13 00:18:36;;;;;;;;;;;;;;;19.27;100.00;101221.41;5032194;28;1301;-77
2023/09/13 00:21:01;;;;;;;;;;;;;;;19.23;100.00;101214.84;5026997;28;1260;-77
2023/09/13 00:23:26;;;;;;;;;;;;;;;19.22;100.00;101212.41;5030212;28;1472;-77
2023/09/13 00:25:52;;;;;;;;;;;;;;;19.18;100.00;101200.59;5027707;28;1648;-77
2023/09/13 00:28:17;;;;;;;;;;;;;;;19.20;100.00;101203.84;5024153;28;1501;-77
2023/09/13 00:30:42;;;;;;;;;;;;;;;19.20;100.00;101204.66;5019459;28;1515;-78
2023/09/13 00:33:07;;;;;;;;;;;;;;;19.19;100.00;101202.22;5024869;28;1967;-78
2023/09/13 00:35:33;;;;;;;;;;;;;;;19.18;100.00;101198.78;5021332;28;1285;-77
2023/09/13 00:37:58;;;;;;;;;;;;;;;19.17;100.00;101191.88;5028625;28;1290;-77
2023/09/13 00:40:23;;;;;;;;;;;;;;;19.17;100.00;101185.81;5030927;28;1255;-77
2023/09/13 00:42:48;;;;;;;;;;;;;;;19.16;100.00;101194.69;5037542;28;1056;-77
2023/09/13 00:45:14;;;;;;;;;;;;;;;19.15;100.00;101185.97;5028925;28;1324;-76
2023/09/13 00:47:42;;;;;;;;;;;;;;;19.14;100.00;101194.03;5036145;28;1296;-77
2023/09/13 00:50:09;;;;;;;;;;;;;;;19.12;100.00;101196.03;5025929;28;1516;-75
2023/09/13 00:52:34;;;;;;;;;;;;;;;19.08;100.00;101212.13;5034190;28;1878;-75
2023/09/13 00:55:00;;;;;;;;;;;;;;;19.05;100.00;101204.59;5030188;28;1280;-75
2023/09/13 00:57:25;;;;;;;;;;;;;;;19.04;100.00;101205.59;5038123;28;2187;-75
2023/09/13 00:59:50;;;;;;;;;;;;;;;19.03;100.00;101198.66;5032353;28;1526;-75
2023/09/13 01:02:15;;;;;;;;;;;;;;;19.01;100.00;101199.84;5029848;28;1318;-74
2023/09/13 01:04:41;;;;;;;;;;;;;;;18.99;100.00;101197.41;5035252;28;1262;-75
2023/09/13 01:07:08;;;;;;;;;;;;;;;18.98;100.00;101195.75;5032848;28;1255;-75
2023/09/13 01:09:33;;;;;;;;;;;;;;;18.97;100.00;101194.09;5034260;28;1261;-75
2023/09/13 01:11:59;;;;;;;;;;;;;;;18.97;100.00;101199.34;5031187;28;1120;-74
2023/09/13 01:14:24;;;;;;;;;;;;;;;18.97;100.00;101198.53;5027455;28;2084;-74
2023/09/13 01:16:54;;;;;;;;;;;;;;;18.97;100.00;101201.97;5029830;28;1502;-75
2023/09/13 01:19:38;;;;;;;;;;;;;;;18.96;100.00;101191.66;5028210;28;1549;-74
2023/09/13 01:22:21;;;;;;;;;;;;;;;18.94;100.00;101183.94;5026705;28;1518;-76
2023/09/13 01:24:49;;;;;;;;;;;;;;;18.97;100.00;101188.03;5028228;28;1288;-75
2023/09/13 01:27:33;;;;;;;;;;;;;;;18.96;100.00;101184.56;5028404;28;1295;-75
2023/09/13 01:29:59;;;;;;;;;;;;;;;18.92;100.00;101185.91;5027145;28;1249;-75
2023/09/13 01:32:25;;;;;;;;;;;;;;;18.91;100.00;101194.78;5025294;28;1963;-77
2023/09/13 01:34:50;;;;;;;;;;;;;;;18.91;100.00;101193.97;5027044;28;1173;-77
2023/09/13 01:37:15;;;;;;;;;;;;;;;18.92;100.00;101196.41;5028517;28;1277;-78
2023/09/13 01:39:40;;;;;;;;;;;;;;;18.91;100.00;101200.03;5026917;28;1280;-78
2023/09/13 01:42:08;;;;;;;;;;;;;;;18.89;100.00;101186.25;5028291;28;1217;-77
2023/09/13 01:44:40;;;;;;;;;;;;;;;18.86;100.00;101196.28;5026168;28;1562;-77
2023/09/13 01:47:06;;;;;;;;;;;;;;;18.84;100.00;101192.03;5027456;28;1189;-77
2023/09/13 01:49:32;;;;;;;;;;;;;;;18.86;100.00;101191.84;5028313;28;1634;-77
2023/09/13 01:51:57;;;;;;;;;;;;;;;18.89;100.00;101198.59;5037909;28;1159;-78
2023/09/13 01:54:22;;;;;;;;;;;;;;;18.90;100.00;101208.09;5026811;28;1886;-78
2023/09/13 01:56:48;;;;;;;;;;;;;;;18.92;100.00;101204.31;5029521;28;1235;-78
2023/09/13 01:59:13;;;;;;;;;;;;;;;18.93;100.00;101203.34;5033799;28;1392;-77
2023/09/13 02:01:38;;;;;;;;;;;;;;;18.95;100.00;101206.59;5038673;28;1181;-77
2023/09/13 02:04:07;;;;;;;;;;;;;;;18.96;100.00;101208.22;5032485;28;1269;-77
2023/09/13 02:06:32;;;;;;;;;;;;;;;18.95;100.00;101206.59;5017189;28;1266;-77
2023/09/13 02:08:57;;;;;;;;;;;;;;;18.96;100.00;101216.13;5032629;28;1291;-77
2023/09/13 02:11:24;;;;;;;;;;;;;;;18.94;100.00;101220.75;5024712;28;1303;-78
2023/09/13 02:13:50;;;;;;;;;;;;;;;18.94;100.00;101212.84;5031092;28;1902;-78
2023/09/13 02:16:20;;;;;;;;;;;;;;;18.93;100.00;101208.59;5020516;28;1254;-77
2023/09/13 02:18:45;;;;;;;;;;;;;;;18.94;100.00;101214.66;5022722;28;1733;-77
2023/09/13 02:21:10;;;;;;;;;;;;;;;18.94;100.00;101207.59;5025261;28;1240;-77
2023/09/13 02:23:35;;;;;;;;;;;;;;;18.95;100.00;101217.13;5035075;28;1631;-77
2023/09/13 02:26:00;;;;;;;;;;;;;;;18.95;100.00;101222.38;5031517;28;1459;-77
2023/09/13 02:28:26;;;;;;;;;;;;;;;18.96;100.00;101218.75;5027632;28;1423;-78
2023/09/13 02:30:51;;;;;;;;;;;;;;;18.97;100.00;101220.38;5033188;28;1435;-78
2023/09/13 02:33:16;;;;;;;;;;;;;;;18.99;100.00;101228.94;5027202;28;1895;-77
2023/09/13 02:35:42;;;;;;;;;;;;;;;18.99;100.00;101228.94;5032536;28;1129;-78
2023/09/13 02:38:07;;;;;;;;;;;;;;;18.99;100.00;101218.41;5029510;28;1207;-77
2023/09/13 02:40:32;;;;;;;;;;;;;;;19.00;100.00;101225.31;5031748;28;1327;-78
2023/09/13 02:42:57;;;;;;;;;;;;;;;19.01;100.00;101224.31;5030223;28;1106;-77
2023/09/13 02:45:22;;;;;;;;;;;;;;;19.04;100.00;101220.53;5023062;28;1241;-77
2023/09/13 02:47:48;;;;;;;;;;;;;;;19.05;100.00;101228.25;5028673;28;1257;-76
2023/09/13 02:50:13;;;;;;;;;;;;;;;19.05;100.00;101228.25;5027762;28;1286;-75
2023/09/13 02:52:38;;;;;;;;;;;;;;;19.08;100.00;101221.81;5033095;28;1965;-75
2023/09/13 02:55:06;;;;;;;;;;;;;;;19.08;100.00;101227.09;5018982;28;1436;-75
2023/09/13 02:57:32;;;;;;;;;;;;;;;19.09;100.00;101229.53;5029799;28;1599;-76
2023/09/13 02:59:57;;;;;;;;;;;;;;;19.10;100.00;101231.19;5034383;28;1336;-75
2023/09/13 03:02:22;;;;;;;;;;;;;;;19.10;100.00;101235.63;5038538;28;1377;-75
2023/09/13 03:04:51;;;;;;;;;;;;;;;19.10;100.00;101233.81;5036476;28;1737;-75
2023/09/13 03:07:17;;;;;;;;;;;;;;;19.09;100.00;101240.03;5032534;28;1131;-75
2023/09/13 03:09:43;;;;;;;;;;;;;;;19.11;100.00;101237.28;5034613;28;1657;-75
2023/09/13 03:12:08;;;;;;;;;;;;;;;19.12;100.00;101243.34;5033410;28;1578;-75
2023/09/13 03:14:33;;;;;;;;;;;;;;;19.07;100.00;101239.41;5031750;28;1898;-75
2023/09/13 03:16:58;;;;;;;;;;;;;;;19.05;100.00;101237.94;5032387;28;1068;-76
2023/09/13 03:19:24;;;;;;;;;;;;;;;19.02;100.00;101244.34;5029195;28;1274;-75
2023/09/13 03:21:50;;;;;;;;;;;;;;;18.97;100.00;101230.91;5027516;28;1305;-76
2023/09/13 03:24:15;;;;;;;;;;;;;;;18.94;100.00;101231.25;5028884;28;1379;-76
2023/09/13 03:26:41;;;;;;;;;;;;;;;18.93;100.00;101232.25;5028164;28;1217;-75
2023/09/13 03:29:06;;;;;;;;;;;;;;;18.93;100.00;101227.00;5025423;28;1295;-75
2023/09/13 03:31:32;;;;;;;;;;;;;;;18.92;100.00;101225.31;5032167;28;1168;-75
2023/09/13 03:33:57;;;;;;;;;;;;;;;18.90;100.00;101224.69;5029949;28;1906;-78
2023/09/13 03:36:25;;;;;;;;;;;;;;;18.87;100.00;101230.31;5031396;28;1276;-75
2023/09/13 03:38:50;;;;;;;;;;;;;;;18.83;100.00;101234.25;5031139;28;1320;-75
2023/09/13 03:41:17;;;;;;;;;;;;;;;18.80;100.00;101238.00;5030589;28;1329;-78
2023/09/13 03:43:42;;;;;;;;;;;;;;;18.76;100.00;101235.91;5025695;28;1734;-78
2023/09/13 03:46:07;;;;;;;;;;;;;;;18.72;100.00;101253.81;5025675;28;1340;-79
2023/09/13 03:48:33;;;;;;;;;;;;;;;18.72;100.00;101247.75;5031349;28;1207;-78
2023/09/13 03:50:59;;;;;;;;;;;;;;;18.71;100.00;101254.00;5023823;28;1200;-78
2023/09/13 03:53:24;;;;;;;;;;;;;;;18.69;100.00;101254.13;5027686;28;1954;-78
2023/09/13 03:55:50;;;;;;;;;;;;;;;18.67;100.00;101250.03;5017137;28;1515;-78
2023/09/13 03:58:15;;;;;;;;;;;;;;;18.65;100.00;101252.00;5027750;28;1114;-78
2023/09/13 04:00:40;;;;;;;;;;;;;;;18.62;100.00;101260.22;5024902;28;2374;-78
2023/09/13 04:03:06;;;;;;;;;;;;;;;18.58;100.00;101257.94;5029790;28;1256;-78
2023/09/13 04:05:31;;;;;;;;;;;;;;;18.54;100.00;101251.34;5036629;28;1400;-77
2023/09/13 04:07:59;;;;;;;;;;;;;;;18.51;100.00;101249.06;5032593;28;1312;-78
2023/09/13 04:10:25;;;;;;;;;;;;;;;18.51;100.00;101246.44;5041411;28;1275;-77
2023/09/13 04:12:50;;;;;;;;;;;;;;;18.48;100.00;101241.53;5033362;28;1902;-78
2023/09/13 04:15:16;;;;;;;;;;;;;;;18.47;100.00;101245.13;5022730;28;1639;-78
2023/09/13 04:17:41;;;;;;;;;;;;;;;18.45;100.00;101236.59;5031106;28;1069;-78
2023/09/13 04:20:06;;;;;;;;;;;;;;;18.41;100.00;101245.81;5027931;28;1395;-78
2023/09/13 04:22:32;;;;;;;;;;;;;;;18.38;100.00;101243.50;5024630;28;1545;-78
2023/09/13 04:24:57;;;;;;;;;;;;;;;18.37;100.00;101248.94;5031050;28;1257;-77
2023/09/13 04:27:23;;;;;;;;;;;;;;;18.37;100.00;101249.75;5029007;28;1216;-77
2023/09/13 04:29:48;;;;;;;;;;;;;;;18.32;100.00;101246.78;5031635;28;1295;-77
2023/09/13 04:32:13;;;;;;;;;;;;;;;18.31;100.00;101245.16;5032450;28;1181;-78
2023/09/13 04:34:38;;;;;;;;;;;;;;;18.26;100.00;101250.06;5030433;28;1902;-78
2023/09/13 04:37:07;;;;;;;;;;;;;;;18.21;100.00;101250.56;5032489;28;1678;-78
2023/09/13 04:39:32;;;;;;;;;;;;;;;18.18;100.00;101244.81;5030524;28;1229;-78
2023/09/13 04:41:58;;;;;;;;;;;;;;;18.16;100.00;101241.53;5031153;28;1262;-78
2023/09/13 04:44:23;;;;;;;;;;;;;;;18.15;100.00;101247.78;5032617;28;1241;-76
2023/09/13 04:46:48;;;;;;;;;;;;;;;18.12;100.00;101241.06;5030989;28;1202;-77
2023/09/13 04:49:14;;;;;;;;;;;;;;;18.08;100.00;101255.50;5032183;28;1445;-77
2023/09/13 04:51:39;;;;;;;;;;;;;;;18.01;100.00;101255.34;5031174;28;1228;-77
2023/09/13 04:54:04;;;;;;;;;;;;;;;17.97;100.00;101264.50;5032235;28;1898;-77
2023/09/13 04:56:29;;;;;;;;;;;;;;;17.95;100.00;101261.22;5024523;28;1890;-77
2023/09/13 04:58:55;;;;;;;;;;;;;;;17.91;100.00;101262.53;5031575;28;1193;-77
2023/09/13 05:01:20;;;;;;;;;;;;;;;17.87;100.00;101265.63;5026052;28;1272;-77
2023/09/13 05:03:46;;;;;;;;;;;;;;;17.84;100.00;101258.94;5027370;28;1222;-77
2023/09/13 05:06:11;;;;;;;;;;;;;;;17.80;100.00;101252.34;5025569;28;1306;-78
2023/09/13 05:08:37;;;;;;;;;;;;;;;17.79;100.00;101261.22;5032665;28;1486;-78
2023/09/13 05:11:02;;;;;;;;;;;;;;;17.75;100.00;101259.88;5032496;28;1268;-80
2023/09/13 05:13:28;;;;;;;;;;;;;;;17.73;100.00;101267.09;5028983;28;1989;-78
2023/09/13 05:15:53;;;;;;;;;;;;;;;17.69;100.00;101271.00;5020998;28;1272;-75
2023/09/13 05:18:18;;;;;;;;;;;;;;;17.68;100.00;101269.34;5031831;28;1510;-77
2023/09/13 05:20:43;;;;;;;;;;;;;;;17.65;100.00;101270.47;5030715;28;1347;-77
2023/09/13 05:23:08;;;;;;;;;;;;;;;17.66;100.00;101271.28;5028662;28;1400;-78
2023/09/13 05:25:34;;;;;;;;;;;;;;;17.66;100.00;101276.53;5036349;28;1262;-78
2023/09/13 05:27:59;;;;;;;;;;;;;;;17.68;100.00;101271.97;5032703;28;1209;-74
2023/09/13 05:30:27;;;;;;;;;;;;;;;17.69;100.00;101276.22;5029480;28;1260;-75
2023/09/13 05:32:53;;;;;;;;;;;;;;;17.69;100.00;101281.47;5032719;28;1961;-76
2023/09/13 05:35:18;;;;;;;;;;;;;;;17.71;100.00;101275.09;5022544;28;1643;-75
2023/09/13 05:37:43;;;;;;;;;;;;;;;17.72;100.00;101276.78;5025047;28;1980;-76
2023/09/13 05:40:09;;;;;;;;;;;;;;;17.72;100.00;101279.41;5025669;28;1230;-77
2023/09/13 05:42:34;;;;;;;;;;;;;;;17.75;100.00;101275.63;5035026;28;1145;-75
2023/09/13 05:44:59;;;;;;;;;;;;;;;17.75;100.00;101286.13;5032683;28;1323;-75
2023/09/13 05:47:25;;;;;;;;;;;;;;;17.76;100.00;101285.94;5031066;28;1178;-76
2023/09/13 05:49:50;;;;;;;;;;;;;;;17.78;100.00;101285.81;5027759;28;1384;-75
2023/09/13 05:52:15;;;;;;;;;;;;;;;17.81;100.00;101289.91;5027671;28;1128;-76
2023/09/13 05:54:40;;;;;;;;;;;;;;;17.83;100.00;101288.75;5026795;28;1898;-75
2023/09/13 05:57:05;;;;;;;;;;;;;;;17.86;100.00;101296.31;5031103;28;1487;-76
2023/09/13 05:59:35;;;;;;;;;;;;;;;17.83;100.00;101294.00;5027913;28;1300;-76
2023/09/13 06:02:00;;;;;;;;;;;;;;;17.90;100.00;101305.50;5029259;28;1344;-76
2023/09/13 06:04:25;;;;;;;;;;;;;;;17.92;100.00;101298.28;5028908;28;1236;-76
2023/09/13 06:06:50;;;;;;;;;;;;;;;17.94;100.00;101306.00;5020699;28;1626;-75
2023/09/13 06:09:21;;;;;;;;;;;;;;;17.97;100.00;101305.69;5029434;28;1255;-75
2023/09/13 06:11:46;;;;;;;;;;;;;;;17.97;100.00;101314.38;5026815;28;1550;-75
2023/09/13 06:14:12;;;;;;;;;;;;;;;17.98;100.00;101318.63;5022903;28;1902;-76
2023/09/13 06:16:37;;;;;;;;;;;;;;;18.01;100.00;101317.50;5032406;28;1208;-76
2023/09/13 06:19:02;;;;;;;;;;;;;;;18.05;100.00;101330.13;5032104;28;1393;-76
2023/09/13 06:21:27;;;;;;;;;;;;;;;18.07;100.00;101331.78;5032434;28;1188;-76
2023/09/13 06:23:52;;;;;;;;;;;;;;;18.08;100.00;101330.81;5037057;28;1216;-75
2023/09/13 06:26:18;;;;;;;;;;;;;;;18.09;100.00;101338.50;5031246;28;1279;-75
2023/09/13 06:28:43;;;;;;;;;;;;;;;18.12;100.00;101342.59;5029316;28;1228;-75
2023/09/13 06:31:08;;;;;;;;;;;;;;;18.15;100.00;101344.91;5029615;28;1490;-75
2023/09/13 06:33:34;;;;;;;;;;;;;;;18.15;100.00;101339.66;5032241;28;1898;-76
2023/09/13 06:35:59;;;;;;;;;;;;;;;18.18;100.00;101347.19;5028569;28;1259;-76
2023/09/13 06:38:24;;;;;;;;;;;;;;;18.22;100.00;101338.84;5027809;28;1653;-76
2023/09/13 06:40:51;;;;;;;;;;;;;;;18.25;100.00;101346.41;5033542;28;1446;-75
2023/09/13 06:43:18;;;;;;;;;;;;;;;18.27;100.00;101354.13;5026685;28;1224;-75
2023/09/13 06:45:43;;;;;;;;;;;;;;;18.27;100.00;101346.25;5015912;28;1221;-75
2023/09/13 06:48:08;;;;;;;;;;;;;;;18.27;100.00;101354.13;5030320;28;2175;-75
2023/09/13 06:50:34;;;;;;;;;;;;;;;18.26;100.00;101352.47;5034690;28;1307;-76
2023/09/13 06:52:59;;;;;;;;;;;;;;;18.24;100.00;101370.22;5032461;28;1906;-75
2023/09/13 06:55:24;;;;;;;;;;;;;;;18.15;100.00;101394.81;5031820;28;1362;-75
2023/09/13 06:57:51;;;;;;;;;;;;;;;18.00;100.00;101390.16;5032628;28;1240;-75
2023/09/13 07:00:16;;;;;;;;;;;;;;;18.01;100.00;101397.06;5032072;28;1225;-77
2023/09/13 07:02:41;;;;;;;;;;;;;;;17.68;100.00;101405.78;5028441;28;1499;-74
2023/09/13 07:05:06;;;;;;;;;;;;;;;17.52;100.00;101412.56;5032042;28;1562;-75
2023/09/13 07:07:32;;;;;;;;;;;;;;;17.40;100.00;101419.06;5028571;28;1752;-76
2023/09/13 07:09:57;;;;;;;;;;;;;;;17.20;100.00;101417.63;5027917;28;1530;-75
2023/09/13 07:12:22;;;;;;;;;;;;;;;17.05;100.00;101424.41;5029519;28;1293;-75
2023/09/13 07:14:47;;;;;;;;;;;;;;;16.90;100.00;101438.03;5025126;28;1950;-75
2023/09/13 07:17:15;;;;;;;;;;;;;;;16.79;100.00;101440.88;5031146;28;1284;-75
2023/09/13 07:19:40;;;;;;;;;;;;;;;16.69;100.00;101446.19;5028800;28;1355;-75
2023/09/13 07:22:05;;;;;;;;;;;;;;;16.61;100.00;101463.63;5034262;28;1527;-75
2023/09/13 07:24:30;;;;;;;;;;;;;;;16.53;100.00;101460.94;5031383;28;1145;-77
2023/09/13 07:26:55;;;;;;;;;;;;;;;16.56;100.00;101476.31;5038188;28;1272;-74
2023/09/13 07:29:21;;;;;;;;;;;;;;;16.57;100.00;101477.97;5039008;28;1540;-75
2023/09/13 07:31:46;;;;;;;;;;;;;;;16.48;100.00;101487.56;5040627;28;1253;-75
2023/09/13 07:34:11;;;;;;;;;;;;;;;16.45;100.00;101482.59;5034068;28;1896;-75
2023/09/13 07:36:37;;;;;;;;;;;;;;;16.40;100.00;101472.59;5033262;28;1278;-75
2023/09/13 07:39:03;;;;;;;;;;;;;;;16.38;100.00;101478.94;5036593;28;1343;-76
2023/09/13 07:41:28;;;;;;;;;;;;;;;16.29;100.00;101491.13;5031168;28;1534;-75
2023/09/13 07:43:54;;;;;;;;;;;;;;;16.22;100.00;101495.25;5038298;28;1118;-76
2023/09/13 07:46:19;;;;;;;;;;;;;;;16.20;100.00;101497.22;5029177;28;1519;-75
2023/09/13 07:48:44;;;;;;;;;;;;;;;16.17;100.00;101505.34;5032951;28;1313;-76
2023/09/13 07:51:09;;;;;;;;;;;;;;;16.19;100.00;101516.50;5032401;28;1329;-76
2023/09/13 07:53:34;;;;;;;;;;;;;;;16.18;100.00;101505.22;5031221;28;1882;-76
2023/09/13 07:56:00;;;;;;;;;;;;;;;16.27;100.00;101513.97;5033138;28;1149;-75
2023/09/13 07:58:25;;;;;;;;;;;;;;;16.29;100.00;101512.06;5031142;28;1530;-75
2023/09/13 08:00:50;;;;;;;;;;;;;;;16.33;100.00;101516.00;5029686;28;1273;-75
2023/09/13 08:03:16;;;;;;;;;;;;;;;16.33;100.00;101523.84;5024695;28;1197;-75
2023/09/13 08:05:45;;;;;;;;;;;;;;;16.29;100.00;101532.19;5026129;28;1186;-75
2023/09/13 08:08:11;;;;;;;;;;;;;;;16.18;100.00;101535.81;5024617;28;1492;-76
2023/09/13 08:10:36;;;;;;;;;;;;;;;16.17;100.00;101539.38;5031706;28;1258;-74
2023/09/13 08:13:01;;;;;;;;;;;;;;;16.20;100.00;101533.84;5028479;28;1898;-75
2023/09/13 08:15:26;;;;;;;;;;;;;;;16.15;100.00;101546.53;5029576;28;1265;-75
2023/09/13 08:17:51;;;;;;;;;;;;;;;16.13;100.00;101553.72;5027135;28;1681;-75
2023/09/13 08:20:17;;;;;;;;;;;;;;;16.13;100.00;101553.72;5026870;28;1396;-75
2023/09/13 08:22:42;;;;;;;;;;;;;;;16.16;100.00;101559.47;5027380;28;1323;-74
2023/09/13 08:25:10;;;;;;;;;;;;;;;16.18;100.00;101572.44;5029532;28;1414;-76
2023/09/13 08:27:35;;;;;;;;;;;;;;;16.16;100.00;101574.34;5025358;28;1213;-75
2023/09/13 08:30:01;;;;;;;;;;;;;;;16.08;100.00;101587.34;5030815;28;1381;-74
2023/09/13 08:32:26;;;;;;;;;;;;;;;16.11;100.00;101581.81;5036863;28;1446;-76
2023/09/13 08:34:51;;;;;;;;;;;;;;;16.13;100.00;101596.41;5030614;28;1976;-76
2023/09/13 08:37:17;;;;;;;;;;;;;;;16.17;99.62;101596.94;5028435;28;1487;-75
2023/09/13 08:39:42;;;;;;;;;;;;;;;16.26;100.00;101596.09;5032317;28;1382;-76
2023/09/13 08:42:08;;;;;;;;;;;;;;;16.35;100.00;101618.81;5036034;28;1717;-75
2023/09/13 08:44:35;;;;;;;;;;;;;;;16.38;98.84;101620.31;5031042;28;1638;-75
2023/09/13 08:47:02;;;;;;;;;;;;;;;16.39;98.22;101638.47;5028608;28;1307;-75
2023/09/13 08:49:28;;;;;;;;;;;;;;;16.38;98.30;101636.84;5026274;28;1213;-75
2023/09/13 08:51:53;;;;;;;;;;;;;;;16.36;98.05;101643.19;5029772;28;1457;-74
2023/09/13 08:54:19;;;;;;;;;;;;;;;16.44;98.79;101646.72;5033858;28;1925;-76
2023/09/13 08:56:45;;;;;;;;;;;;;;;16.41;98.01;101657.50;5028433;28;1283;-75
2023/09/13 08:59:11;;;;;;;;;;;;;;;16.37;96.59;101661.38;5028874;28;1193;-75
2023/09/13 09:01:37;;;;;;;;;;;;;;;16.33;95.51;101659.16;5025865;28;1287;-75
2023/09/13 09:04:03;;;;;;;;;;;;;;;16.34;97.67;101658.19;5029170;28;1219;-75
2023/09/13 09:06:31;;;;;;;;;;;;;;;16.30;95.98;101665.53;5023718;28;1269;-75
2023/09/13 09:08:57;;;;;;;;;;;;;;;16.34;96.60;101661.63;5027127;28;1229;-75
2023/09/13 09:11:25;;;;;;;;;;;;;;;16.39;97.06;101664.66;5025986;28;1240;-76
2023/09/13 09:13:53;;;;;;;;;;;;;;;16.50;97.08;101661.03;5027932;28;1985;-75
2023/09/13 09:16:18;;;;;;;;;;;;;;;16.53;96.90;101665.19;5024656;28;1197;-75
2023/09/13 09:18:44;;;;;;;;;;;;;;;16.55;96.31;101658.00;5028318;28;1298;-74
2023/09/13 09:21:10;;;;;;;;;;;;;;;16.61;96.98;101673.13;5023454;28;1145;-75
2023/09/13 09:23:38;;;;;;;;;;;;;;;16.71;96.88;101668.72;5029829;28;1345;-75
2023/09/13 09:26:03;;;;;;;;;;;;;;;16.82;96.70;101673.78;5027704;28;1244;-75
2023/09/13 09:28:28;;;;;;;;;;;;;;;16.91;96.31;101667.66;5027087;28;1252;-75
2023/09/13 09:30:54;;;;;;;;;;;;;;;17.02;95.04;101671.88;5026477;28;1225;-76
2023/09/13 09:33:29;;;;;;;;;;;;;;;17.10;95.93;101668.53;5033320;28;1973;-75
2023/09/13 09:35:58;;;;;;;;;;;;;;;17.24;96.27;101655.72;5030302;28;1389;-75
2023/09/13 09:38:25;;;;;;;;;;;;;;;17.31;95.55;101666.44;5031123;28;1164;-75
2023/09/13 09:40:51;;;;;;;;;;;;;;;17.33;94.29;101669.75;5037715;28;1518;-75
2023/09/13 09:43:16;;;;;;;;;;;;;;;17.40;94.22;101670.81;5024264;28;1594;-76
2023/09/13 09:45:41;;;;;;;;;;;;;;;17.47;93.65;101666.63;5034672;28;1342;-75
2023/09/13 09:48:07;;;;;;;;;;;;;;;17.56;93.80;101674.56;5026771;28;1170;-75
2023/09/13 09:50:32;;;;;;;;;;;;;;;17.65;92.39;101663.16;5032644;28;1494;-75
2023/09/13 09:52:57;;;;;;;;;;;;;;;17.76;93.38;101670.84;5031379;28;1975;-76
2023/09/13 09:55:25;;;;;;;;;;;;;;;17.82;93.08;101695.66;5031692;28;1256;-75
2023/09/13 09:57:51;;;;;;;;;;;;;;;17.89;91.90;101715.91;5032742;28;1205;-75
2023/09/13 10:00:16;;;;;;;;;;;;;;;17.98;91.38;101714.97;5026283;28;1205;-76
2023/09/13 10:02:45;;;;;;;;;;;;;;;18.05;90.34;101712.56;5022948;28;1257;-75
2023/09/13 10:05:13;;;;;;;;;;;;;;;18.15;90.98;101720.34;5027913;28;1635;-75
2023/09/13 10:07:49;;;;;;;;;;;;;;;18.26;89.46;101714.88;5026675;28;1509;-76
2023/09/13 10:10:26;;;;;;;;;;;;;;;18.29;90.31;101715.38;5024565;28;1331;-75
2023/09/13 10:12:52;;;;;;;;;;;;;;;18.42;89.80;101709.72;5023990;28;2035;-75
2023/09/13 10:15:18;;;;;;;;;;;;;;;18.57;89.38;101721.28;5028372;28;1158;-75
2023/09/13 10:17:44;;;;;;;;;;;;;;;18.70;88.87;101713.03;5028006;28;1216;-75
2023/09/13 10:20:14;;;;;;;;;;;;;;;18.77;84.92;101718.47;5024485;28;1202;-75
2023/09/13 10:22:40;;;;;;;;;;;;;;;18.79;82.58;101722.59;5028874;28;1240;-75
2023/09/13 10:25:06;;;;;;;;;;;;;;;18.77;83.43;101726.38;5026120;28;1506;-76
2023/09/13 10:27:33;;;;;;;;;;;;;;;18.75;82.49;101728.31;5035715;28;1199;-75
2023/09/13 10:30:02;;;;;;;;;;;;;;;18.78;84.57;101730.63;5026723;28;1164;-76
2023/09/13 10:32:30;;;;;;;;;;;;;;;18.77;83.00;101734.25;5031932;28;1377;-75
2023/09/13 10:35:00;;;;;;;;;;;;;;;18.79;84.08;101737.53;5031046;28;1898;-75
2023/09/13 10:37:44;;;;;;;;;;;;;;;18.79;82.78;101742.78;5027112;28;1200;-75
2023/09/13 10:40:20;;;;;;;;;;;;;;;18.86;84.53;101749.06;5020355;28;1263;-76
2023/09/13 10:42:45;;;;;;;;;;;;;;;18.83;83.14;101754.66;5023547;28;1306;-75
2023/09/13 10:45:14;;;;;;;;;;;;;;;18.71;80.64;101761.16;5030433;28;1296;-75
2023/09/13 10:47:40;;;;;;;;;;;;;;;18.52;78.53;101770.00;5027912;28;1173;-75
2023/09/13 10:50:07;;;;;;;;;;;;;;;18.44;80.66;101770.78;5029923;28;1331;-75
2023/09/13 10:52:34;;;;;;;;;;;;;;;18.53;82.66;101769.88;5029737;28;1279;-76
2023/09/13 10:55:00;;;;;;;;;;;;;;;18.76;83.30;101772.03;5035744;28;1973;-75
2023/09/13 10:57:25;;;;;;;;;;;;;;;18.94;80.97;101775.41;5036535;28;1299;-75
2023/09/13 10:59:51;;;;;;;;;;;;;;;19.01;80.93;101773.78;5027886;28;1458;-75
2023/09/13 11:02:17;;;;;;;;;;;;;;;18.94;79.96;101783.28;5036970;28;1240;-74
2023/09/13 11:04:42;;;;;;;;;;;;;;;18.76;77.95;101785.16;5035536;28;1654;-75
2023/09/13 11:07:07;;;;;;;;;;;;;;;18.66;79.60;101787.03;5028704;28;1687;-75
2023/09/13 11:09:32;;;;;;;;;;;;;;;18.57;80.31;101800.09;5028385;28;1521;-75
2023/09/13 11:11:58;;;;;;;;;;;;;;;18.70;79.47;101796.31;5031303;28;1255;-75
2023/09/13 11:14:27;;;;;;;;;;;;;;;18.91;78.86;101803.81;5027518;28;1942;-75
2023/09/13 11:16:53;;;;;;;;;;;;;;;19.02;79.23;101807.00;5026274;28;1316;-76
2023/09/13 11:19:24;;;;;;;;;;;;;;;19.05;77.20;101806.69;5028689;28;1352;-76
2023/09/13 11:21:51;;;;;;;;;;;;;;;19.05;77.91;101808.50;5027149;28;1251;-75
2023/09/13 11:24:35;;;;;;;;;;;;;;;19.01;76.03;101815.88;5032179;28;1577;-76
2023/09/13 11:27:20;;;;;;;;;;;;;;;18.96;77.23;101812.06;5029691;28;1233;-75
2023/09/13 11:29:46;;;;;;;;;;;;;;;18.93;74.12;101817.63;5034447;28;1307;-76
2023/09/13 11:32:16;;;;;;;;;;;;;;;18.91;75.95;101820.41;5031681;28;1517;-75
2023/09/13 11:34:41;;;;;;;;;;;;;;;18.91;76.30;101819.56;5025269;28;1953;-76
2023/09/13 11:37:07;;;;;;;;;;;;;;;18.94;74.34;101814.84;5027263;28;1542;-75
2023/09/13 11:39:33;;;;;;;;;;;;;;;19.03;74.04;101829.66;5024800;28;1453;-75
2023/09/13 11:41:58;;;;;;;;;;;;;;;19.00;75.00;101840.50;5022589;28;1477;-75
2023/09/13 11:44:24;;;;;;;;;;;;;;;18.94;76.41;101846.41;5027028;28;1550;-75
2023/09/13 11:46:50;;;;;;;;;;;;;;;18.93;75.23;101849.19;5025426;28;1473;-75
2023/09/13 11:49:23;;;;;;;;;;;;;;;18.93;77.19;101855.25;5031430;28;1256;-75
2023/09/13 11:51:54;;;;;;;;;;;;;;;18.96;75.62;101860.19;5028275;28;1189;-75
2023/09/13 11:54:20;;;;;;;;;;;;;;;19.06;76.12;101860.91;5035306;28;1902;-75
2023/09/13 11:56:48;;;;;;;;;;;;;;;19.14;76.65;101861.94;5028318;28;1558;-77
2023/09/13 11:59:14;;;;;;;;;;;;;;;19.30;77.88;101864.66;5032103;28;1503;-75
2023/09/13 12:01:43;;;;;;;;;;;;;;;19.50;77.50;101868.72;5027441;28;1781;-76
2023/09/13 12:04:09;;;;;;;;;;;;;;;19.63;76.65;101863.84;5034090;28;1226;-75
2023/09/13 12:06:44;;;;;;;;;;;;;;;19.78;73.52;101868.50;5029100;28;1345;-76
2023/09/13 12:09:10;;;;;;;;;;;;;;;19.84;73.81;101875.75;5025767;28;1445;-75
2023/09/13 12:11:36;;;;;;;;;;;;;;;19.60;72.36;101874.69;5028920;28;1232;-75
2023/09/13 12:14:02;;;;;;;;;;;;;;;19.40;70.41;101878.53;5028859;28;1902;-75
2023/09/13 12:16:29;;;;;;;;;;;;;;;19.31;74.14;101879.47;5032716;28;1412;-76
2023/09/13 12:18:54;;;;;;;;;;;;;;;19.33;74.29;101872.25;5031883;28;1277;-75
2023/09/13 12:21:20;;;;;;;;;;;;;;;19.38;73.71;101885.72;5025308;28;1359;-75
2023/09/13 12:23:48;;;;;;;;;;;;;;;19.28;72.22;101895.56;5034851;28;1381;-76
2023/09/13 12:26:15;;;;;;;;;;;;;;;19.18;73.04;101886.97;5028436;28;1474;-75
2023/09/13 12:28:41;;;;;;;;;;;;;;;19.15;72.79;101884.63;5026076;28;1345;-75
2023/09/13 12:31:10;;;;;;;;;;;;;;;19.22;73.04;101885.69;5030175;28;1346;-75
2023/09/13 12:33:36;;;;;;;;;;;;;;;19.42;71.69;101883.63;5025962;28;1983;-75
2023/09/13 12:36:03;;;;;;;;;;;;;;;19.54;71.61;101885.81;5031771;28;1430;-76